• Join FlightAware (Why Join?)
  • Login
  • US Flag 
08:26AM EDT


 

Airport Tracker/Info


-or-


 

Live Flight TrackerFlight Track Log ✈ AAL1884 ✈ 21-Jul-2013 ✈ KSJC - KDFW

Flight Track Log - Related Links

Times and Time Zones

All times are in EDT time to prevent confusion due to time zone crossing. See the AAL1884 flight status page for this flight to view local times or setup timezone preferences in your user account.

Time Position Orientation Groundspeed Altitude Reporting Facility
EDT Latitude Longitude Course Direction KTS MPH feet Rate Location/Type
11:50AM 37.3167 -121.8667 95° East 208 239 2,300  Level Northern Cal TRACON
11:51AM 37.3313 -121.4850 122° Southeast  Level Estimated
11:51AM 37.2667 -121.8000 133° Southeast 270 311 4,300  Level Northern Cal TRACON
11:52AM 37.3205 -121.3371 138° Southeast  Level Estimated
11:52AM 37.2000 -121.7500 149° Southeast 283 326 6,900  Level Northern Cal TRACON
11:53AM 37.3095 -121.1891 141° Southeast  Level Estimated
11:53AM 37.1500 -121.6667 127° Southeast 299 344 9,200  Level Northern Cal TRACON
11:54AM 37.2983 -121.0413 133° Southeast  Level Estimated
11:54AM 37.0833 -121.6000 141° Southeast 319 367 11,100  Level Northern Cal TRACON
11:54AM 37.0167 -121.5333 141° Southeast 358 412 12,300 1,800 Climbing Northern Cal TRACON
11:55AM 37.2869 -120.8921 95° East  Level Estimated
11:56AM 36.9178 -121.4111 135° Southeast 374 430 15,200  Level Oakland Center
11:57AM 36.8411 -121.3214 137° Southeast 378 435 17,300 1,980 Climbing Oakland Center
11:58AM 36.7522 -121.2233 139° Southeast 392 451 19,300 1,680 Climbing Oakland Center
11:59AM 36.6678 -121.1269 138° Southeast 408 470 20,800 1,500 Climbing Oakland Center
12:00PM 36.5811 -121.0267 137° Southeast 422 486 22,400 1,500 Climbing Oakland Center
12:01PM 36.4933 -120.9256 137° Southeast 429 494 23,900 1,320 Climbing Oakland Center
12:02PM 36.4028 -120.8217 137° Southeast 440 506 25,200 1,320 Climbing Oakland Center
12:03PM 36.3108 -120.7178 138° Southeast 446 513 26,700 1,200 Climbing Oakland Center
12:04PM 36.2169 -120.6147 138° Southeast 450 518 27,700 1,020 Climbing Oakland Center
12:05PM 36.1378 -120.4925 129° Southeast 447 514 28,900 1,320 Climbing Oakland Center
12:06PM 36.0639 -120.3633 125° Southeast 456 525 30,500 1,260 Climbing Oakland Center
12:07PM 35.9906 -120.2408 126° Southeast 446 513 31,500 840 Climbing Oakland Center
12:08PM 35.9153 -120.1181 127° Southeast 445 512 32,300 720 Climbing Oakland Center
12:09PM 35.8403 -119.9950 127° Southeast 445 512 33,000 300 Climbing Oakland Center
12:10PM 35.7514 -119.8483 127° Southeast 441 507 33,000 -60 Level Oakland Center
12:11PM 35.6767 -119.7272 127° Southeast 441 507 32,900 -60 Descending Oakland Center
12:12PM 35.6019 -119.6058 127° Southeast 442 509 32,900  Level Oakland Center
12:13PM 35.5728 -119.5578 127° Southeast 444 511 32,900  Level Los Angeles Center
12:14PM 35.4853 -119.4122 126° Southeast 440 506 32,900  Level Los Angeles Center
12:15PM 35.5000 -119.2631 83° East 447 514 33,000  Climbing Los Angeles Center
12:16PM 35.5133 -119.1117 84° East 446 513 32,900 -60 Descending Los Angeles Center
12:17PM 35.5097 -118.9581 92° East 447 514 32,900  Level Los Angeles Center
12:18PM 35.5083 -118.7756 90° East 447 514 33,000  Climbing Los Angeles Center
12:19PM 35.5050 -118.5944 91° East 442 509 33,000  Level Los Angeles Center
12:20PM 35.5044 -118.4369 90° East 451 519 33,000  Level Los Angeles Center
12:21PM 35.5031 -118.2839 91° East 449 517 33,000  Level Los Angeles Center
12:22PM 35.4997 -118.1317 91° East 445 512 33,000  Level Los Angeles Center
12:23PM 35.4983 -117.9772 91° East 448 516 33,000  Level Los Angeles Center
12:24PM 35.4983 -117.8228 90° East 449 517 33,000  Level Los Angeles Center
12:25PM 35.4969 -117.6664 91° East 454 522 33,000  Level Los Angeles Center
12:26PM 35.4967 -117.5092 90° East 456 525 33,000  Level Los Angeles Center
12:27PM 35.4939 -117.3222 91° East 455 524 33,000  Level Los Angeles Center
12:28PM 35.4928 -117.1656 90° East 457 526 33,000  Level Los Angeles Center
12:30PM 35.4908 -117.0097 91° East 457 526 33,000  Level Los Angeles Center
12:31PM 35.4886 -116.8225 91° East 456 525 33,000  Level Los Angeles Center
12:32PM 35.4856 -116.6686 91° East 454 522 33,000  Level Los Angeles Center
12:33PM 35.4842 -116.5156 91° East 450 518 33,000  Level Los Angeles Center
12:34PM 35.4814 -116.3611 91° East 454 522 33,000  Level Los Angeles Center
12:35PM 35.4786 -116.1775 91° East 452 520 33,000  Level Los Angeles Center
12:36PM 35.4747 -116.0233 92° East 453 521 33,000  Level Los Angeles Center
12:37PM 35.4722 -115.8561 91° East 451 519 33,000  Level Los Angeles Center
12:38PM 35.4683 -115.7022 92° East 453 521 33,000  Level Los Angeles Center
12:39PM 35.4656 -115.5481 91° East 453 521 33,000  Level Los Angeles Center
12:40PM 35.4611 -115.3931 92° East 456 525 33,000  Level Los Angeles Center
12:41PM 35.4564 -115.2392 92° East 455 524 33,000  Level Los Angeles Center
12:42PM 35.4536 -115.0547 91° East 456 525 33,000  Level Los Angeles Center
12:43PM 35.4508 -114.8992 91° East 458 527 33,000  Level Los Angeles Center
12:44PM 35.4444 -114.7428 93° East 459 528 33,000  Level Los Angeles Center
12:45PM 35.4397 -114.5881 92° East 457 526 33,000  Level Los Angeles Center
12:46PM 35.4336 -114.4331 93° East 458 527 33,000  Level Los Angeles Center
12:47PM 35.4272 -114.2781 93° East 457 526 33,000  Level Los Angeles Center
12:48PM 35.4219 -114.0917 92° East 455 524 33,000  Level Los Angeles Center
12:49PM 35.4158 -113.9381 93° East 453 521 33,000  Level Los Angeles Center
12:50PM 35.4108 -113.8003 93° East 453 521 33,000  Level Los Angeles Center
12:51PM 35.4039 -113.6156 93° East 454 522 33,000  Level Los Angeles Center
12:52PM 35.3972 -113.4589 93° East 461 531 33,000  Level Los Angeles Center
12:53PM 35.3911 -113.3044 93° East 458 527 33,000  Level Los Angeles Center
12:54PM 35.3839 -113.1292 93° East 459 528 33,000  Level Los Angeles Center
12:56PM 35.3758 -112.9736 94° East 457 526 33,000  Level Los Angeles Center
12:56PM 35.3708 -112.8497 93° East 472 543 33,000  Level Albuquerque Center
12:57PM 35.3639 -112.6931 93° East 466 536 33,000  Level Albuquerque Center
12:58PM 35.3567 -112.5369 93° East 464 534 33,000  Level Albuquerque Center
12:59PM 35.3489 -112.3814 93° East 462 532 33,000  Level Albuquerque Center
01:00PM 35.3386 -112.1947 94° East 460 529 33,000  Level Albuquerque Center
01:01PM 35.3317 -112.0408 93° East 459 528 33,000  Level Albuquerque Center
01:03PM 35.3214 -111.8839 95° East 461 531 33,000  Level Albuquerque Center
01:04PM 35.3139 -111.7278 93° East 462 532 33,000  Level Albuquerque Center
01:05PM 35.3044 -111.5653 94° East 462 532 33,000  Level Albuquerque Center
01:06PM 35.2956 -111.4092 94° East 461 531 33,000  Level Albuquerque Center
01:07PM 35.2858 -111.2522 94° East 461 531 33,000  Level Albuquerque Center
01:08PM 35.2747 -111.0614 94° East 463 533 33,000  Level Albuquerque Center
01:09PM 35.2661 -110.9106 94° East 463 533 33,000  Level Albuquerque Center
01:10PM 35.2558 -110.7600 95° East 464 534 33,000  Level Albuquerque Center
01:11PM 35.2447 -110.5858 94° East 462 532 33,000  Level Albuquerque Center
01:12PM 35.2364 -110.4358 94° East 462 532 33,000  Level Albuquerque Center
01:13PM 35.2244 -110.2603 95° East 464 534 33,000  Level Albuquerque Center
01:14PM 35.2142 -110.1094 95° East 465 535 33,000  Level Albuquerque Center
01:15PM 35.2022 -109.9339 95° East 465 535 33,000  Level Albuquerque Center
01:16PM 35.1919 -109.7844 95° East 464 534 33,000  Level Albuquerque Center
01:17PM 35.1797 -109.6078 95° East 466 536 33,000  Level Albuquerque Center
01:18PM 35.1689 -109.4586 95° East 464 534 33,000  Level Albuquerque Center
01:19PM 35.1564 -109.2867 95° East 460 529 33,000  Level Albuquerque Center
01:20PM 35.1453 -109.1378 95° East 461 531 33,000  Level Albuquerque Center
01:21PM 35.1314 -108.9653 96° East 459 528 33,000  Level Albuquerque Center
01:22PM 35.1200 -108.8183 95° East 458 527 33,000  Level Albuquerque Center
01:23PM 35.1072 -108.6442 95° East 462 532 33,000  Level Albuquerque Center
01:24PM 35.0947 -108.4953 96° East 462 532 33,000  Level Albuquerque Center
01:25PM 35.0806 -108.3217 96° East 462 532 33,000  Level Albuquerque Center
01:26PM 35.0681 -108.1731 96° East 461 531 33,000  Level Albuquerque Center
01:27PM 35.0536 -107.9986 96° East 463 533 33,000  Level Albuquerque Center
01:28PM 35.0406 -107.8503 96° East 462 532 33,000  Level Albuquerque Center
01:29PM 35.0253 -107.6825 96° East 461 531 33,000  Level Albuquerque Center
01:30PM 35.0106 -107.5275 97° East 462 532 33,000  Level Albuquerque Center
01:31PM 34.9961 -107.3739 97° East 459 528 33,000  Level Albuquerque Center
01:32PM 34.9814 -107.2203 97° East 459 528 33,000  Level Albuquerque Center
01:34PM 34.9689 -107.0619 95° East 456 525 33,000  Level Albuquerque Center
01:35PM 34.9517 -106.8928 97° East 451 519 33,000 300 Level Albuquerque Center
01:36PM 34.9367 -106.7486 97° East 449 517 33,700 600 Climbing Albuquerque Center
01:37PM 34.9214 -106.5792 96° East 451 519 34,300 480 Climbing Albuquerque Center
01:38PM 34.9058 -106.4381 98° East 460 529 34,700 300 Climbing Albuquerque Center
01:39PM 34.8900 -106.2856 97° East 456 525 35,000 120 Climbing Albuquerque Center
01:40PM 34.8717 -106.1042 97° East 452 520 35,000  Level Albuquerque Center
01:41PM 34.8553 -105.9514 97° East 455 524 35,000  Level Albuquerque Center
01:42PM 34.8394 -105.7864 97° East 454 522 35,000  Level Albuquerque Center
01:43PM 34.8233 -105.6328 97° East 454 522 35,000  Level Albuquerque Center
01:44PM 34.8056 -105.4778 98° East 458 527 35,000  Level Albuquerque Center
01:45PM 34.7903 -105.3250 97° East 455 524 35,000  Level Albuquerque Center
01:46PM 34.7717 -105.1708 98° East 456 525 35,000  Level Albuquerque Center
01:47PM 34.7558 -105.0186 97° East 453 521 35,000  Level Albuquerque Center
01:48PM 34.7397 -104.8667 97° East 451 519 35,000  Level Albuquerque Center
01:49PM 34.7189 -104.6875 98° East 455 524 35,000  Level Albuquerque Center
01:50PM 34.7022 -104.5358 98° East 453 521 35,000  Level Albuquerque Center
01:51PM 34.6853 -104.3833 98° East 454 522 35,000  Level Albuquerque Center
01:52PM 34.6664 -104.2300 98° East 457 526 35,000  Level Albuquerque Center
01:53PM 34.6494 -104.0781 98° East 455 524 35,000  Level Albuquerque Center
01:54PM 34.6303 -103.9242 99° East 458 527 35,000  Level Albuquerque Center
01:55PM 34.6086 -103.7458 98° East 457 526 35,000  Level Albuquerque Center
01:56PM 34.5906 -103.5928 98° East 456 525 35,000  Level Albuquerque Center
01:57PM 34.5708 -103.4389 99° East 458 527 35,000  Level Albuquerque Center
01:58PM 34.5522 -103.2842 98° East 460 529 35,000  Level Albuquerque Center
01:59PM 34.5322 -103.1311 99° East 458 527 35,000  Level Albuquerque Center
02:00PM 34.5131 -102.9767 99° East 460 529 35,000  Level Albuquerque Center
02:01PM 34.4914 -102.8156 99° East 456 525 35,000  Level Albuquerque Center
02:02PM 34.4767 -102.6642 97° East 455 524 35,000  Level Albuquerque Center
02:03PM 34.4614 -102.5108 97° East 459 528 35,000  Level Albuquerque Center
02:04PM 34.4450 -102.3572 97° East 461 531 35,000  Level Albuquerque Center
02:06PM 34.4261 -102.1736 97° East 462 532 35,000  Level Albuquerque Center
02:07PM 34.4092 -102.0208 98° East 461 531 35,000  Level Albuquerque Center
02:08PM 34.3922 -101.8697 98° East 459 528 35,000  Level Albuquerque Center
02:09PM 34.3756 -101.7169 97° East 459 528 35,000  Level Albuquerque Center
02:10PM 34.3594 -101.5653 97° East 459 528 35,000  Level Albuquerque Center
02:11PM 34.3383 -101.3844 98° East 456 525 35,000  Level Albuquerque Center
02:12PM 34.3244 -101.2708 98° East 462 532 35,000  Level Fort Worth Center
02:13PM 34.3083 -101.1194 97° East 462 532 35,000  Level Fort Worth Center
02:14PM 34.2897 -100.9653 98° East 462 532 35,000  Level Fort Worth Center
02:15PM 34.2731 -100.8139 98° East 462 532 35,000  Level Fort Worth Center
02:16PM 34.2564 -100.6575 97° East 467 537 35,000  Level Fort Worth Center
02:17PM 34.2353 -100.5058 100° East 467 537 35,000  Level Fort Worth Center
02:18PM 34.2142 -100.3419 99° East 461 531 35,000  Level Fort Worth Center
02:19PM 34.1883 -100.1878 101° East 461 531 35,000  Level Fort Worth Center
02:20PM 34.1478 -100.0408 108° East 461 531 35,000  Level Fort Worth Center
02:21PM 34.1092 -99.8892 107° East 456 525 35,000  Level Fort Worth Center
02:22PM 34.0722 -99.7453 107° East 456 525 35,000  Level Fort Worth Center
02:23PM 34.0331 -99.6014 108° East 456 525 35,000  Level Fort Worth Center
02:24PM 33.9917 -99.4550 109° East 456 525 35,000  Level Fort Worth Center
02:25PM 33.9525 -99.3064 108° East 456 525 35,000  Level Fort Worth Center
02:26PM 33.9206 -99.1931 109° East 461 531 35,000  Level Fort Worth Center
02:27PM 33.8747 -99.0319 109° East 456 525 35,000  Level Fort Worth Center
02:28PM 33.8369 -98.8864 107° East 456 525 35,000  Level Fort Worth Center
02:29PM 33.7969 -98.7331 107° East 449 517 35,000 -480 Level Fort Worth Center
02:30PM 33.7503 -98.5900 111° Southeast 449 517 34,100 -1,680 Descending Fort Worth Center
02:31PM 33.6972 -98.4519 115° Southeast 449 517 31,700 -2,400 Descending Fort Worth Center
02:32PM 33.6442 -98.3167 115° Southeast 454 522 29,300 -2,700 Descending Fort Worth Center
02:33PM 33.5928 -98.1789 114° Southeast 454 522 26,400 -2,940 Descending Fort Worth Center
02:34PM 33.5433 -98.0589 116° Southeast 448 516 23,500 -3,780 Descending Fort Worth Center
02:35PM 33.4858 -97.9092 115° Southeast 448 516 18,900 -3,900 Descending Fort Worth Center
02:37PM 33.3906 -97.6622 115° Southeast 412 474 11,900 -2,880 Descending Fort Worth Center
02:38PM 33.3239 -97.5800 134° Southeast 358 412 10,400 -1,500 Descending Fort Worth Center
02:39PM 33.2800 -97.5078 126° Southeast 328 377 9,000 -1,800 Descending Fort Worth Center
02:40PM 33.2258 -97.4258 128° Southeast 297 342 6,800 -1,860 Descending Fort Worth Center
02:41PM 33.1667 -97.3500 133° Southeast 274 315 5,200 -900 Descending Dallas / Fort Worth TRACON
02:42PM 33.1150 -97.3042 143° Southeast 269 310 5,000 -480 Descending Fort Worth Center
02:43PM 33.0692 -97.2522 136° Southeast 264 304 4,300 -720 Descending Fort Worth Center